»·PEaware :: N8092H KLAX-KSNA

N8092H :: KLAX-KSNA

FLIGHT INFORMATION

Flight Status: Arrived
Operator: Privately registered:
United States
More flights under this callsign
Pilot: Mark B. (9455)
Aircraft: CESSNA 172 SKYHAWK
(C172)
More flights by this aircraft type
Origin: KLAX Los Angeles Intl
United States
Destination: KSNA John Wayne-Orange Co
United States
More flights between these airports :: More routes between these airports
Route: +SLI7 SLI
File this flight plan on PilotEdge
Remarks: I6
Altitude:
(Current/Filed)
4,000ft
Speed:
(Current/Filed)
115kts
Departed: 12-Feb-17 02:39 PM
Arrived: 12-Feb-17 03:31 PM
Distance/Time
Traveled:
31nm/0:52
Distance/Time
To Go:
Arrived

Flight Plot

Page will automatically refresh every two minutes.


Map Options




Map Legend


Flown Route
Filed Route
Departure Airport
Arrival Airport
Navaid (VOR, NDB)
Fix

Horizontal Profiles

Position Reports

Time Latitude Longitude Heading Altitude Ground
Speed
12-Feb-17 14:16 33.934003 -118.388372 173 130ft 0kts
12-Feb-17 14:17 33.934003 -118.388372 173 130ft 0kts
12-Feb-17 14:18 33.934003 -118.388372 173 130ft 0kts
12-Feb-17 14:19 33.934003 -118.388372 173 130ft 0kts
12-Feb-17 14:20 33.934003 -118.388372 173 130ft 0kts
12-Feb-17 14:21 33.934003 -118.388372 173 130ft 0kts
12-Feb-17 14:22 33.934003 -118.388372 173 130ft 0kts
12-Feb-17 14:23 33.934003 -118.388372 173 130ft 0kts
12-Feb-17 14:24 33.934003 -118.388372 173 130ft 0kts
12-Feb-17 14:25 33.934003 -118.388372 173 130ft 0kts
12-Feb-17 14:26 33.934003 -118.388372 173 130ft 0kts
12-Feb-17 14:27 33.934003 -118.388372 173 130ft 0kts
12-Feb-17 14:28 33.934003 -118.388372 173 130ft 0kts
12-Feb-17 14:29 33.934003 -118.388372 173 130ft 0kts
12-Feb-17 14:30 33.935721 -118.387057 82 130ft 17kts
12-Feb-17 14:31 33.936415 -118.382706 1 130ft 1kts
12-Feb-17 14:32 33.936416 -118.382706 1 130ft 0kts
12-Feb-17 14:33 33.936416 -118.382706 1 130ft 0kts
12-Feb-17 14:34 33.936416 -118.382706 1 130ft 0kts
12-Feb-17 14:35 33.936416 -118.382706 1 130ft 0kts
12-Feb-17 14:36 33.936416 -118.382706 1 130ft 0kts
12-Feb-17 14:37 33.936416 -118.382706 1 130ft 0kts
12-Feb-17 14:38 33.937282 -118.383868 258 130ft 34kts
12-Feb-17 14:39 33.934158 -118.407720 260 1071ft 75kts
12-Feb-17 14:40 33.931829 -118.433420 263 2153ft 79kts
12-Feb-17 14:41 33.924778 -118.457324 216 3200ft 78kts
12-Feb-17 14:42 33.905634 -118.471626 208 3904ft 86kts
12-Feb-17 14:43 33.882328 -118.488148 213 3895ft 96kts
12-Feb-17 14:44 33.857743 -118.495595 172 3875ft 98kts
12-Feb-17 14:45 33.832721 -118.486757 143 3918ft 95kts
12-Feb-17 14:46 33.811844 -118.466799 142 3918ft 94kts
12-Feb-17 14:47 33.791476 -118.446427 139 3891ft 99kts
12-Feb-17 14:48 33.770203 -118.425380 139 3854ft 96kts
12-Feb-17 14:49 33.749263 -118.404677 139 3805ft 99kts
12-Feb-17 14:50 33.728794 -118.383991 138 3840ft 96kts
12-Feb-17 14:51 33.708524 -118.363487 136 3861ft 94kts
12-Feb-17 14:52 33.688378 -118.342656 137 3857ft 96kts
12-Feb-17 14:53 33.667768 -118.322140 142 3870ft 94kts
12-Feb-17 14:54 33.647205 -118.302268 140 3908ft 97kts
12-Feb-17 14:55 33.625302 -118.279960 132 3963ft 105kts
12-Feb-17 14:56 33.625479 -118.243686 78 3893ft 110kts
12-Feb-17 14:57 33.631505 -118.208160 76 3882ft 106kts
12-Feb-17 14:58 33.646517 -118.179916 36 3922ft 103kts
12-Feb-17 14:59 33.669629 -118.158246 35 3920ft 106kts
12-Feb-17 15:00 33.693633 -118.136806 37 3883ft 108kts
12-Feb-17 15:01 33.717055 -118.114972 35 3893ft 108kts
12-Feb-17 15:02 33.740302 -118.092850 37 3924ft 105kts
12-Feb-17 15:03 33.764734 -118.072267 35 3884ft 109kts
12-Feb-17 15:04 33.785611 -118.047668 62 3907ft 107kts
12-Feb-17 15:05 33.799231 -118.016069 64 3861ft 112kts
12-Feb-17 15:06 33.811217 -117.983233 65 3958ft 101kts
12-Feb-17 15:07 33.824310 -117.951410 62 3896ft 104kts
12-Feb-17 15:08 33.836600 -117.921229 64 3873ft 98kts
12-Feb-17 15:09 33.848237 -117.892490 63 3924ft 94kts
12-Feb-17 15:10 33.861092 -117.864307 62 3932ft 94kts
12-Feb-17 15:11 33.871049 -117.840235 64 3918ft 96kts
12-Feb-17 15:12 33.885075 -117.806582 65 3933ft 96kts
12-Feb-17 15:13 33.895447 -117.776414 64 3912ft 97kts
12-Feb-17 15:14 33.906415 -117.746939 67 3920ft 96kts
12-Feb-17 15:15 33.917515 -117.717366 60 3913ft 97kts
12-Feb-17 15:16 33.936742 -117.703179 30 3805ft 101kts
12-Feb-17 15:17 33.961417 -117.697631 300 3531ft 103kts
12-Feb-17 15:18 33.944446 -117.710064 160 3439ft 91kts
12-Feb-17 15:19 33.921352 -117.711985 210 3427ft 88kts
12-Feb-17 15:20 33.895796 -117.727930 208 3416ft 88kts
12-Feb-17 15:21 33.878058 -117.739935 211 3414ft 87kts
12-Feb-17 15:22 33.856542 -117.753664 207 3402ft 89kts
12-Feb-17 15:23 33.835033 -117.767212 208 3401ft 90kts
12-Feb-17 15:24 33.813732 -117.781582 203 3105ft 87kts
12-Feb-17 15:25 33.792219 -117.795099 211 2653ft 87kts
12-Feb-17 15:26 33.770844 -117.808648 206 2171ft 87kts
12-Feb-17 15:27 33.749432 -117.822262 208 1650ft 86kts
12-Feb-17 15:28 33.728208 -117.835579 208 1129ft 85kts
12-Feb-17 15:29 33.707486 -117.849205 209 630ft 85kts
12-Feb-17 15:30 33.686554 -117.861958 207 222ft 83kts
12-Feb-17 15:31 33.675694 -117.869117 274 60ft 6kts
12-Feb-17 15:32 33.676340 -117.870262 13 60ft 0kts
12-Feb-17 15:33 33.676340 -117.870262 13 60ft 0kts
12-Feb-17 15:34 33.676340 -117.870262 13 60ft 0kts

Navigation Log

Ident Type
Flight plan parsing failed, navigation log unavailable